Time;durP1;ratioP1;P1;durP2;ratioP2;P2;SDS_P1;SDS_P2;PMS_P1;PMS_P2;Temp;Humidity;BMP_temperature;BMP_pressure;BME280_temperature;BME280_humidity;BME280_pressure;Samples;Min_cycle;Max_cycle;Signal;HPM_P1;HPM_P2
2021/10/25 00:02:06;;;;;;;7.37;3.87;;;;;;;-0.93;76.79;97171.28;1768871;81;21544;-69
2021/10/25 00:04:33;;;;;;;6.50;3.77;;;;;;;-0.89;76.23;97171.02;1776910;80;21078;-68
2021/10/25 00:07:01;;;;;;;7.93;3.40;;;;;;;-0.97;76.08;97171.92;1775969;80;21085;-69
2021/10/25 00:09:28;;;;;;;2.73;1.80;;;;;;;-1.01;76.35;97170.38;1771494;80;21073;-69
2021/10/25 00:11:55;;;;;;;5.97;2.07;;;;;;;-1.01;75.97;97167.80;1774663;81;21089;-68
2021/10/25 00:14:22;;;;;;;4.03;1.97;;;;;;;-1.02;76.37;97173.39;1771615;80;21021;-67
2021/10/25 00:16:49;;;;;;;3.53;1.97;;;;;;;-0.95;76.56;97162.94;1769867;80;20994;-68
2021/10/25 00:19:16;;;;;;;9.97;4.87;;;;;;;-0.99;76.55;97170.95;1767272;81;21012;-68
2021/10/25 00:21:43;;;;;;;8.47;4.37;;;;;;;-1.10;76.29;97164.34;1773824;80;21058;-68
2021/10/25 00:24:11;;;;;;;7.10;3.30;;;;;;;-1.25;75.91;97159.25;1772147;81;21065;-68
2021/10/25 00:26:38;;;;;;;4.40;1.93;;;;;;;-1.29;77.21;97167.66;1775956;80;21113;-68
2021/10/25 00:29:05;;;;;;;4.00;2.13;;;;;;;-1.34;76.81;97160.94;1767494;80;21465;-70
2021/10/25 00:31:34;;;;;;;4.73;1.73;;;;;;;-1.36;77.22;97158.70;1774970;80;21002;-70
2021/10/25 00:34:01;;;;;;;2.97;1.53;;;;;;;-1.25;77.25;97159.66;1773499;81;21028;-69
2021/10/25 00:36:28;;;;;;;2.90;1.00;;;;;;;-1.13;77.52;97151.23;1766381;80;21027;-69
2021/10/25 00:38:54;;;;;;;3.03;1.40;;;;;;;-1.08;76.71;97154.95;1767877;80;20986;-70
2021/10/25 00:41:23;;;;;;;4.47;1.80;;;;;;;-1.04;76.79;97151.69;1771240;80;21064;-69
2021/10/25 00:43:50;;;;;;;4.03;1.60;;;;;;;-1.10;77.08;97159.16;1773199;81;21544;-69
2021/10/25 00:46:19;;;;;;;5.43;2.43;;;;;;;-1.01;76.86;97155.72;1763970;80;21026;-69
2021/10/25 00:48:45;;;;;;;4.20;3.03;;;;;;;-1.06;77.12;97159.78;1770546;80;21018;-68
2021/10/25 00:51:12;;;;;;;4.80;2.70;;;;;;;-1.08;76.29;97158.84;1774125;80;20982;-68
2021/10/25 00:53:41;;;;;;;17.73;5.23;;;;;;;-1.21;76.32;97152.14;1768122;80;21145;-69
2021/10/25 00:56:09;;;;;;;9.83;3.97;;;;;;;-1.22;76.66;97154.64;1772327;80;21062;-69
2021/10/25 00:58:37;;;;;;;2.27;1.27;;;;;;;-1.20;76.86;97150.44;1770829;80;21077;-69
2021/10/25 01:01:05;;;;;;;3.23;1.27;;;;;;;-1.16;76.92;97151.05;1764482;80;21021;-69
2021/10/25 01:03:33;;;;;;;6.20;1.30;;;;;;;-1.03;76.87;97152.19;1773932;80;21042;-70
2021/10/25 01:06:00;;;;;;;3.80;1.80;;;;;;;-1.01;76.38;97153.13;1773364;81;21580;-69
2021/10/25 01:08:31;;;;;;;3.60;1.83;;;;;;;-1.08;75.86;97152.36;1765567;80;21017;-69
2021/10/25 01:10:59;;;;;;;3.37;1.40;;;;;;;-1.12;75.78;97158.19;1730834;80;21062;-70
2021/10/25 01:13:27;;;;;;;3.13;1.40;;;;;;;-1.20;75.69;97157.79;1771782;80;21098;-70
2021/10/25 01:15:54;;;;;;;2.13;1.40;;;;;;;-1.20;76.09;97155.20;1772456;81;21021;-69
2021/10/25 01:18:22;;;;;;;1.83;1.07;;;;;;;-1.14;75.85;97161.09;1775194;80;21504;-69
2021/10/25 01:20:49;;;;;;;2.73;1.47;;;;;;;-1.17;76.82;97157.06;1764168;80;21009;-69
2021/10/25 01:23:17;;;;;;;3.90;2.10;;;;;;;-1.27;77.89;97159.58;1767459;80;21134;-69
2021/10/25 01:25:45;;;;;;;3.03;2.13;;;;;;;-1.36;77.41;97157.78;1760010;80;21071;-69
2021/10/25 01:28:12;;;;;;;3.43;1.70;;;;;;;-1.46;77.06;97155.15;1773719;80;21041;-69
2021/10/25 01:30:39;;;;;;;5.43;2.17;;;;;;;-1.42;77.48;97149.71;1765694;80;21043;-69
2021/10/25 01:33:12;;;;;;;3.50;1.97;;;;;;;-1.35;77.48;97140.17;1778733;81;21572;-69
2021/10/25 01:35:39;;;;;;;2.77;1.40;;;;;;;-1.28;77.44;97137.09;1759487;81;21058;-69
2021/10/25 01:38:06;;;;;;;2.13;1.47;;;;;;;-1.22;77.42;97136.09;1766845;80;20982;-67
2021/10/25 01:40:33;;;;;;;1.90;1.20;;;;;;;-1.20;76.83;97137.48;1768406;80;21540;-70
2021/10/25 01:43:01;;;;;;;2.23;1.47;;;;;;;-1.12;76.78;97137.05;1767485;80;21105;-69
2021/10/25 01:45:29;;;;;;;5.33;1.27;;;;;;;-1.10;76.41;97135.44;1764250;80;21902;-69
2021/10/25 01:47:56;;;;;;;3.23;1.63;;;;;;;-1.07;76.12;97136.41;1774979;80;21015;-70
2021/10/25 01:50:24;;;;;;;4.70;1.43;;;;;;;-1.14;76.57;97137.78;1777090;81;21062;-69
2021/10/25 01:52:51;;;;;;;2.10;1.50;;;;;;;-1.27;77.01;97134.97;1778231;81;21062;-69
2021/10/25 01:55:19;;;;;;;4.23;2.37;;;;;;;-1.37;77.25;97140.48;1775471;81;21481;-69
2021/10/25 01:57:46;;;;;;;6.07;2.30;;;;;;;-1.40;76.86;97134.74;1766131;80;21026;-69
2021/10/25 02:00:13;;;;;;;1.93;1.43;;;;;;;-1.52;76.08;97138.86;1764474;80;21041;-69
2021/10/25 02:02:44;;;;;;;3.63;1.70;;;;;;;-1.56;76.01;97142.13;1771525;80;21018;-69
2021/10/25 02:05:13;;;;;;;1.43;1.10;;;;;;;-1.62;76.94;97135.30;1766966;80;21093;-69
2021/10/25 02:07:39;;;;;;;2.93;1.43;;;;;;;-1.54;77.16;97143.09;1755330;81;21000;-69
2021/10/25 02:10:07;;;;;;;2.83;1.10;;;;;;;-1.50;76.75;97140.66;1756196;81;21062;-69
2021/10/25 02:12:35;;;;;;;2.23;1.20;;;;;;;-1.48;76.73;97135.17;1767782;80;21019;-69
2021/10/25 02:15:03;;;;;;;2.30;1.20;;;;;;;-1.47;76.94;97136.52;1775543;80;21691;-69
2021/10/25 02:17:30;;;;;;;2.87;1.70;;;;;;;-1.58;77.78;97136.38;1775556;80;21021;-69
2021/10/25 02:19:59;;;;;;;4.03;1.40;;;;;;;-1.49;77.77;97144.61;1772971;80;21097;-69
2021/10/25 02:22:26;;;;;;;1.50;1.13;;;;;;;-1.40;77.47;97137.75;1765130;80;21487;-69
2021/10/25 02:24:53;;;;;;;4.53;1.37;;;;;;;-1.34;77.02;97136.34;1765199;80;21048;-69
2021/10/25 02:27:22;;;;;;;2.10;1.20;;;;;;;-1.26;76.89;97139.36;1767292;80;21061;-69
2021/10/25 02:29:50;;;;;;;2.80;1.57;;;;;;;-1.32;76.51;97137.31;1771823;80;21015;-69
2021/10/25 02:32:19;;;;;;;2.50;1.13;;;;;;;-1.43;77.14;97135.00;1774493;81;21087;-69
2021/10/25 02:34:47;;;;;;;1.63;1.00;;;;;;;-1.45;77.09;97136.20;1764271;80;21013;-69
2021/10/25 02:37:16;;;;;;;5.13;1.60;;;;;;;-1.55;77.46;97140.41;1770201;80;21507;-69
2021/10/25 02:39:45;;;;;;;2.33;1.10;;;;;;;-1.56;76.87;97131.77;1772308;81;21188;-69
2021/10/25 02:42:13;;;;;;;4.03;1.40;;;;;;;-1.54;76.76;97131.83;1769378;81;21057;-69
2021/10/25 02:44:40;;;;;;;3.80;1.83;;;;;;;-1.58;76.84;97135.97;1777385;81;21133;-70
2021/10/25 02:47:07;;;;;;;4.20;2.30;;;;;;;-1.60;77.23;97133.70;1777335;81;21043;-69
2021/10/25 02:49:34;;;;;;;4.17;2.20;;;;;;;-1.66;76.37;97132.09;1773838;80;21020;-69
2021/10/25 02:52:02;;;;;;;5.77;1.90;;;;;;;-1.75;76.69;97135.47;1772548;81;21588;-69
2021/10/25 02:54:31;;;;;;;3.60;1.53;;;;;;;-1.70;77.28;97138.31;1774332;81;21014;-69
2021/10/25 02:56:57;;;;;;;3.03;0.80;;;;;;;-1.60;77.19;97145.34;1769468;80;21031;-69
2021/10/25 02:59:28;;;;;;;2.53;1.20;;;;;;;-1.62;76.68;97143.07;1775975;81;21545;-69
2021/10/25 03:01:55;;;;;;;2.87;0.93;;;;;;;-1.65;76.45;97140.73;1774368;80;21019;-68
2021/10/25 03:04:22;;;;;;;3.63;1.30;;;;;;;-1.65;76.59;97129.09;1776938;81;21556;-69
2021/10/25 03:06:48;;;;;;;5.70;2.27;;;;;;;-1.54;77.01;97137.00;1775608;81;21011;-69
2021/10/25 03:09:16;;;;;;;1.70;1.40;;;;;;;-1.62;76.85;97133.13;1776484;80;21025;-69
2021/10/25 03:11:43;;;;;;;5.33;2.20;;;;;;;-1.66;76.77;97132.09;1769296;80;21094;-69
2021/10/25 03:14:10;;;;;;;5.13;2.00;;;;;;;-1.69;76.44;97137.08;1769352;80;21092;-69
2021/10/25 03:16:44;;;;;;;3.67;1.80;;;;;;;-1.73;76.25;97136.86;1769189;80;21017;-69
2021/10/25 03:19:11;;;;;;;5.57;1.37;;;;;;;-1.72;76.56;97143.39;1769164;80;21065;-69
2021/10/25 03:21:37;;;;;;;1.67;0.97;;;;;;;-1.71;77.29;97142.61;1764089;80;21017;-69
2021/10/25 03:24:05;;;;;;;4.13;1.20;;;;;;;-1.68;76.92;97140.17;1763868;80;21025;-70
2021/10/25 03:26:32;;;;;;;3.77;1.30;;;;;;;-1.80;77.60;97145.57;1774942;81;21031;-70
2021/10/25 03:28:59;;;;;;;1.63;0.80;;;;;;;-1.79;77.24;97146.08;1773637;81;21563;-69
2021/10/25 03:31:26;;;;;;;1.77;1.00;;;;;;;-1.81;76.90;97151.56;1764433;80;20998;-69
2021/10/25 03:33:52;;;;;;;2.37;1.10;;;;;;;-1.76;76.88;97149.23;1775271;81;21037;-69
2021/10/25 03:36:25;;;;;;;3.20;1.10;;;;;;;-1.67;77.17;97147.11;1766222;80;21089;-69
2021/10/25 03:38:50;;;;;;;2.40;1.27;;;;;;;-1.62;77.09;97148.66;1776099;81;21012;-68
2021/10/25 03:41:22;;;;;;;4.87;2.43;;;;;;;-1.61;77.02;97142.69;1778318;81;21493;-69
2021/10/25 03:43:50;;;;;;;4.37;1.47;;;;;;;-1.68;76.54;97144.47;1769988;80;21042;-69
2021/10/25 03:46:25;;;;;;;1.67;1.03;;;;;;;-1.75;76.36;97144.53;1771613;80;21007;-69
2021/10/25 03:48:56;;;;;;;2.62;1.60;;;;;;;-1.84;77.07;97139.77;1773824;80;21027;-69
2021/10/25 03:51:17;;;;;;;6.03;1.93;;;;;;;-1.77;77.43;97139.67;1774893;80;21046;-69
2021/10/25 03:54:23;;;;;;;4.30;2.07;;;;;;;-1.76;77.10;97135.00;1778558;81;20992;-70
2021/10/25 03:56:47;;;;;;;4.70;1.67;;;;;;;-1.72;77.01;97130.45;1776506;80;21026;-69
2021/10/25 04:29:17;;;;;;;2.67;1.73;;;;;;;-2.08;77.99;97122.50;1756438;80;21477;-69
2021/10/25 04:31:43;;;;;;;2.27;1.30;;;;;;;-2.13;78.00;97123.06;1773069;81;21035;-69
2021/10/25 04:34:11;;;;;;;3.03;1.03;;;;;;;-2.13;77.42;97116.19;1774868;80;21035;-69
2021/10/25 04:36:50;;;;;;;3.40;0.97;;;;;;;-2.15;77.54;97112.63;1771061;80;21615;-69
2021/10/25 04:39:35;;;;;;;1.87;1.03;;;;;;;-2.24;78.94;97105.68;1766359;80;21003;-69
2021/10/25 04:42:03;;;;;;;3.17;1.70;;;;;;;-2.12;78.93;97114.48;1768297;80;21045;-69
2021/10/25 04:44:30;;;;;;;6.57;2.50;;;;;;;-2.02;78.53;97116.35;1764181;80;21112;-69
2021/10/25 04:46:57;;;;;;;2.97;1.30;;;;;;;-1.93;78.13;97119.86;1764625;80;21124;-69
2021/10/25 04:49:24;;;;;;;1.27;0.90;;;;;;;-1.97;77.92;97114.94;1764255;80;21120;-69
2021/10/25 04:51:55;;;;;;;4.30;1.50;;;;;;;-2.07;78.35;97117.80;1714660;81;21541;-69
2021/10/25 04:54:23;;;;;;;3.87;1.63;;;;;;;-2.06;78.10;97113.13;1778654;80;21580;-68
2021/10/25 04:56:54;;;;;;;3.37;1.80;;;;;;;-1.94;78.11;97120.67;1764488;81;21057;-69
2021/10/25 04:59:22;;;;;;;2.90;1.13;;;;;;;-1.83;77.82;97119.54;1769098;80;21529;-70
2021/10/25 05:01:49;;;;;;;4.07;1.60;;;;;;;-1.85;77.43;97117.68;1770387;81;21139;-69
2021/10/25 05:04:16;;;;;;;5.53;2.10;;;;;;;-1.87;77.63;97118.88;1775973;80;21049;-70
2021/10/25 05:06:42;;;;;;;4.10;2.10;;;;;;;-1.91;77.71;97116.95;1774215;80;21059;-69
2021/10/25 05:09:09;;;;;;;8.73;3.50;;;;;;;-1.94;77.80;97121.05;1753898;81;21031;-69
2021/10/25 05:11:37;;;;;;;2.53;1.10;;;;;;;-2.05;78.09;97121.36;1777395;81;21048;-69
2021/10/25 05:14:04;;;;;;;3.20;1.57;;;;;;;-2.13;77.89;97120.06;1765585;80;21098;-69
2021/10/25 05:16:31;;;;;;;3.10;1.00;;;;;;;-2.18;77.61;97129.27;1770957;80;21034;-69
2021/10/25 05:19:10;;;;;;;6.93;3.20;;;;;;;-2.09;78.03;97128.49;1767757;80;21099;-70
2021/10/25 05:21:39;;;;;;;6.27;3.10;;;;;;;-2.14;77.92;97133.81;1774204;81;21046;-69
2021/10/25 05:24:06;;;;;;;2.50;0.80;;;;;;;-2.18;77.64;97138.31;1769477;80;21024;-69
2021/10/25 05:26:33;;;;;;;1.83;0.60;;;;;;;-2.09;77.93;97127.58;1773603;80;21725;-69
2021/10/25 05:29:01;;;;;;;6.77;2.00;;;;;;;-2.04;77.93;97131.30;1767481;80;20994;-69
2021/10/25 05:31:28;;;;;;;4.03;2.10;;;;;;;-2.02;78.38;97134.45;1767360;80;21172;-69
2021/10/25 05:33:58;;;;;;;4.37;2.73;;;;;;;-1.95;78.26;97135.69;1770606;80;21015;-69
2021/10/25 05:36:25;;;;;;;5.40;2.50;;;;;;;-1.86;78.19;97125.85;1766604;80;21050;-69
2021/10/25 05:38:52;;;;;;;2.53;0.83;;;;;;;-1.80;77.51;97130.45;1767456;80;21049;-69
2021/10/25 05:41:19;;;;;;;2.00;1.00;;;;;;;-1.77;77.77;97127.61;1772673;80;21006;-68
2021/10/25 05:43:45;;;;;;;2.07;1.00;;;;;;;-1.83;77.79;97137.66;1754731;80;21507;-69
2021/10/25 05:46:12;;;;;;;0.90;0.50;;;;;;;-1.70;78.02;97127.96;1768398;80;21036;-69
2021/10/25 05:48:41;;;;;;;2.33;0.90;;;;;;;-1.67;77.72;97125.12;1764157;80;21017;-69
2021/10/25 05:51:09;;;;;;;1.37;0.60;;;;;;;-1.65;77.60;97132.56;1767947;80;21033;-69
2021/10/25 05:53:36;;;;;;;2.83;2.00;;;;;;;-1.59;78.00;97133.28;1768736;80;21133;-69
2021/10/25 05:56:03;;;;;;;5.77;3.67;;;;;;;-1.59;78.38;97133.28;1775564;80;21011;-69
2021/10/25 05:58:32;;;;;;;9.93;4.70;;;;;;;-1.53;78.16;97135.80;1778854;81;21007;-69
2021/10/25 06:01:02;;;;;;;20.87;11.73;;;;;;;-1.62;78.89;97139.19;1778494;81;21019;-69
2021/10/25 06:03:34;;;;;;;25.48;14.95;;;;;;;-1.50;79.25;97129.89;1768585;80;21089;-69
2021/10/25 06:06:03;;;;;;;26.03;16.57;;;;;;;-1.27;79.12;97128.91;1773482;80;20991;-69
2021/10/25 06:08:30;;;;;;;26.27;14.90;;;;;;;-1.06;78.89;97129.11;1774644;80;21038;-69
2021/10/25 06:10:57;;;;;;;24.23;14.50;;;;;;;-0.86;78.15;97131.00;1769430;80;20997;-68
2021/10/25 06:13:31;;;;;;;30.40;17.77;;;;;;;-0.73;77.52;97126.93;1764258;80;21531;-69
2021/10/25 06:16:02;;;;;;;8.23;3.85;;;;;;;-0.60;77.31;97123.23;1771299;80;20993;-68
2021/10/25 06:18:27;;;;;;;3.97;2.70;;;;;;;-0.60;76.89;97128.42;1764028;80;21539;-69
2021/10/25 06:20:54;;;;;;;3.40;1.70;;;;;;;-0.59;77.18;97121.52;1767100;80;21031;-68
2021/10/25 06:23:21;;;;;;;5.10;1.60;;;;;;;-0.62;76.94;97122.67;1769117;80;21829;-69
2021/10/25 06:25:51;;;;;;;14.87;9.33;;;;;;;-0.69;77.00;97127.55;1776783;81;21058;-67
2021/10/25 06:28:23;;;;;;;16.67;10.07;;;;;;;-0.62;78.13;97120.09;1775692;80;21114;-69
2021/10/25 06:30:58;;;;;;;9.60;6.13;;;;;;;-0.35;78.25;97128.29;1778032;81;21540;-69
2021/10/25 06:33:25;;;;;;;4.77;2.70;;;;;;;-0.32;77.58;97124.16;1769775;80;21133;-69
2021/10/25 06:36:02;;;;;;;3.87;2.57;;;;;;;-0.35;77.33;97126.98;1759347;80;21014;-69
2021/10/25 06:38:51;;;;;;;7.10;3.20;;;;;;;-0.39;77.84;97135.46;1769556;80;21110;-68
2021/10/25 06:41:12;;;;;;;4.37;2.47;;;;;;;-0.44;78.21;97136.53;1768441;80;21015;-69
2021/10/25 06:43:40;;;;;;;12.07;7.43;;;;;;;-0.40;78.02;97139.77;1773989;81;21531;-69
2021/10/25 06:46:08;;;;;;;12.53;7.20;;;;;;;-0.31;78.95;97140.59;1770460;80;21539;-69
2021/10/25 06:48:35;;;;;;;17.20;9.80;;;;;;;-0.11;79.10;97131.17;1764656;80;21020;-69
2021/10/25 06:51:02;;;;;;;18.23;9.17;;;;;;;0.21;79.25;97130.97;1775217;81;21030;-69
2021/10/25 06:53:29;;;;;;;15.33;8.37;;;;;;;0.50;79.01;97135.70;1779240;81;21062;-68
2021/10/25 06:55:58;;;;;;;11.97;8.33;;;;;;;0.70;78.19;97127.50;1770793;81;21105;-68
2021/10/25 06:58:25;;;;;;;11.93;7.63;;;;;;;0.78;77.35;97123.13;1765416;80;21564;-68
2021/10/25 07:00:57;;;;;;;10.10;6.17;;;;;;;0.90;76.83;97126.66;1777215;80;21065;-66
2021/10/25 07:03:20;;;;;;;11.40;7.03;;;;;;;1.02;76.06;97123.70;1769666;80;21044;-68
2021/10/25 07:05:47;;;;;;;14.27;7.17;;;;;;;1.05;76.12;97110.83;1775926;81;21133;-68
2021/10/25 07:08:15;;;;;;;11.67;7.70;;;;;;;1.11;75.96;97120.59;1760874;81;21043;-69
2021/10/25 07:10:43;;;;;;;14.73;8.07;;;;;;;1.28;75.85;97111.38;1757119;80;21053;-68
2021/10/25 07:13:10;;;;;;;18.37;10.77;;;;;;;1.40;75.54;97107.10;1765114;80;21061;-69
2021/10/25 07:15:45;;;;;;;15.73;8.77;;;;;;;1.53;75.64;97101.98;1769666;80;21014;-68
2021/10/25 07:18:47;;;;;;;14.10;8.57;;;;;;;1.65;75.38;97103.78;1770627;80;21037;-69
2021/10/25 08:02:43;;;;;;;11.80;5.93;;;;;;;4.12;69.02;97075.06;1768797;80;21005;-69
2021/10/25 08:07:29;;;;;;;11.00;3.83;;;;;;;4.64;68.81;97069.18;1765615;80;21124;-69
2021/10/25 08:10:16;;;;;;;7.27;4.23;;;;;;;4.91;66.33;97063.40;1728678;80;21035;-69
2021/10/25 08:12:51;;;;;;;10.27;3.70;;;;;;;5.12;67.33;97055.22;1778748;81;21019;-69
2021/10/25 08:15:25;;;;;;;39.07;20.00;;;;;;;5.28;65.67;97059.11;1774409;81;21035;-69
2021/10/25 08:17:53;;;;;;;9.60;3.40;;;;;;;5.47;66.44;97056.94;1778143;80;21007;-68
2021/10/25 08:20:18;;;;;;;7.17;2.93;;;;;;;5.67;64.20;97063.58;1771339;80;21026;-68
2021/10/25 08:22:45;;;;;;;6.63;2.20;;;;;;;5.92;64.14;97062.82;1768921;81;21012;-68
2021/10/25 08:25:12;;;;;;;6.27;2.23;;;;;;;6.09;62.20;97061.94;1770723;80;21069;-68
2021/10/25 08:27:57;;;;;;;6.70;2.37;;;;;;;6.27;62.21;97058.40;1764041;80;21112;-68
2021/10/25 08:30:24;;;;;;;8.10;2.90;;;;;;;6.41;61.17;97056.97;1768029;80;21060;-68
2021/10/25 08:40:52;;;;;;;3.10;1.67;;;;;;;7.39;58.92;97054.47;1768725;80;21037;-68
2021/10/25 08:43:20;;;;;;;2.40;1.50;;;;;;;7.64;58.86;97051.82;1767436;80;21003;-68
2021/10/25 08:45:50;;;;;;;1.90;1.30;;;;;;;7.87;57.38;97047.80;1773383;80;21061;-68
2021/10/25 08:48:17;;;;;;;9.53;7.33;;;;;;;8.12;55.24;97043.79;1766846;80;21542;-69
2021/10/25 08:50:44;;;;;;;4.53;1.50;;;;;;;8.36;55.68;97048.92;1767969;80;21002;-69
2021/10/25 08:53:14;;;;;;;2.57;1.20;;;;;;;8.59;51.65;97040.95;1769153;80;21003;-69
2021/10/25 08:55:51;;;;;;;5.67;1.30;;;;;;;8.80;53.33;97042.94;1779055;80;21085;-69
2021/10/25 08:58:19;;;;;;;1.87;1.10;;;;;;;8.98;52.20;97044.02;1778583;81;21043;-67
2021/10/25 09:00:51;;;;;;;5.97;1.57;;;;;;;9.13;50.18;97045.49;1778100;80;21126;-68
2021/10/25 09:03:22;;;;;;;2.80;1.07;;;;;;;9.27;50.18;97046.94;1775328;80;21497;-68
2021/10/25 09:06:00;;;;;;;1.57;1.10;;;;;;;9.45;49.98;97048.45;1776755;80;21081;-68
2021/10/25 09:08:30;;;;;;;3.60;1.27;;;;;;;9.53;45.76;97050.70;1768977;80;21001;-65
2021/10/25 09:10:57;;;;;;;2.57;1.10;;;;;;;9.70;48.94;97048.63;1766508;80;21640;-66
2021/10/25 09:13:28;;;;;;;2.43;1.10;;;;;;;9.88;49.08;97047.48;1766608;80;21033;-65
2021/10/25 09:16:00;;;;;;;2.07;1.20;;;;;;;10.03;48.20;97043.16;1771876;80;21102;-66
2021/10/25 09:18:38;;;;;;;2.40;1.33;;;;;;;10.22;48.88;97045.50;1722165;80;21476;-66
2021/10/25 09:21:10;;;;;;;3.33;1.30;;;;;;;10.31;45.86;97042.52;1776368;81;21023;-66
2021/10/25 09:23:42;;;;;;;2.70;1.50;;;;;;;10.39;45.38;97043.87;1775080;81;21049;-66
2021/10/25 09:26:15;;;;;;;3.07;1.70;;;;;;;10.50;46.21;97047.44;1769695;80;21584;-67
2021/10/25 09:28:54;;;;;;;2.93;1.63;;;;;;;10.60;44.71;97044.41;1777937;80;21079;-66
2021/10/25 09:31:26;;;;;;;3.60;1.70;;;;;;;10.66;45.31;97040.49;1774858;80;21079;-66
2021/10/25 09:34:05;;;;;;;3.93;1.70;;;;;;;10.81;45.50;97033.08;1777494;80;21090;-66
2021/10/25 09:36:53;;;;;;;2.47;1.87;;;;;;;10.93;45.18;97031.77;1768408;81;21007;-66
2021/10/25 09:39:38;;;;;;;2.60;1.40;;;;;;;11.10;45.03;97033.14;1770791;80;21058;-66
2021/10/25 09:50:07;;;;;;;3.80;2.00;;;;;;;11.55;44.46;97023.97;1779331;81;21034;-65
2021/10/25 09:52:40;;;;;;;2.30;1.70;;;;;;;11.61;41.84;97022.19;1773311;80;21056;-65
2021/10/25 09:55:16;;;;;;;3.72;1.52;;;;;;;11.63;41.45;97014.27;1773372;80;21067;-65
2021/10/25 10:00:32;;;;;;;2.37;1.53;;;;;;;11.83;42.57;97019.55;1764098;80;20982;-66
2021/10/25 10:03:00;;;;;;;2.03;1.17;;;;;;;11.95;42.73;97014.30;1765361;80;21037;-66
2021/10/25 10:05:40;;;;;;;2.47;1.40;;;;;;;12.12;41.17;97008.53;1768075;80;21053;-67
2021/10/25 10:08:09;;;;;;;3.30;1.33;;;;;;;12.46;39.86;97003.14;1765592;80;21017;-66
2021/10/25 10:10:37;;;;;;;3.67;1.50;;;;;;;12.89;39.22;96995.00;1768515;80;21077;-66
2021/10/25 10:13:12;;;;;;;2.62;1.50;;;;;;;13.37;38.92;96997.39;1767918;80;21053;-67
2021/10/25 10:15:42;;;;;;;2.85;1.37;;;;;;;13.78;36.93;96993.11;1769975;80;21057;-65
2021/10/25 10:18:16;;;;;;;2.95;1.30;;;;;;;14.17;38.15;96994.06;1771052;80;21552;-67
2021/10/25 10:21:05;;;;;;;1.60;1.20;;;;;;;14.56;36.80;96989.22;1767023;80;21050;-66
2021/10/25 10:23:35;;;;;;;2.52;1.30;;;;;;;14.91;35.95;96992.31;1773666;81;21077;-66
2021/10/25 10:26:07;;;;;;;4.72;1.55;;;;;;;15.17;34.26;96985.78;1769181;80;21089;-66
2021/10/25 10:28:42;;;;;;;6.30;1.30;;;;;;;15.37;32.27;96982.80;1764378;80;21113;-65
2021/10/25 10:31:24;;;;;;;2.33;1.05;;;;;;;16.11;33.50;96972.30;1769431;80;21050;-65
2021/10/25 10:34:13;;;;;;;3.27;1.17;;;;;;;16.11;33.50;96972.30;1763623;80;21014;-66
2021/10/25 10:36:56;;;;;;;2.27;1.17;;;;;;;16.41;31.82;96972.17;1752551;80;21449;-65
2021/10/25 10:39:40;;;;;;;1.50;0.95;;;;;;;16.57;32.58;96967.41;1766608;80;21033;-66
2021/10/25 10:42:29;;;;;;;3.15;1.10;;;;;;;16.84;28.71;96957.54;1766548;81;21021;-66
2021/10/25 10:45:09;;;;;;;6.22;1.30;;;;;;;17.21;29.87;96959.40;1767804;80;21007;-66
2021/10/25 10:47:42;;;;;;;3.72;1.42;;;;;;;17.75;30.09;96951.42;1766036;80;21014;-66
2021/10/25 10:50:43;;;;;;;7.10;1.32;;;;;;;18.03;29.00;96953.42;1772046;80;21114;-66
2021/10/25 10:53:11;;;;;;;3.72;2.20;;;;;;;17.93;29.62;96946.10;1777966;80;21568;-66
2021/10/25 10:55:43;;;;;;;;;;;;;;;18.19;29.47;96945.86;1780039;81;21105;-67
2021/10/25 10:58:39;;;;;;;6.53;1.40;;;;;;;18.37;28.42;96938.70;1777080;81;20101;-67
2021/10/25 11:01:05;;;;;;;5.60;1.22;;;;;;;18.50;28.90;96938.76;1773198;80;21495;-67
2021/10/25 11:03:33;;;;;;;5.97;2.05;;;;;;;18.65;27.47;96933.87;1774584;80;21589;-67
2021/10/25 11:06:10;;;;;;;3.17;1.67;;;;;;;19.07;28.44;96926.86;1767645;80;21062;-67
2021/10/25 11:08:44;;;;;;;2.45;1.75;;;;;;;19.12;26.84;96930.27;1772963;80;21039;-66
2021/10/25 11:11:23;;;;;;;4.72;1.50;;;;;;;19.38;27.76;96922.31;1776999;80;21108;-66
2021/10/25 11:14:01;;;;;;;3.02;1.80;;;;;;;19.54;26.45;96915.11;1771454;80;21022;-66
2021/10/25 11:19:06;;;;;;;3.15;1.85;;;;;;;19.53;27.66;96910.66;1767231;80;21082;-66
2021/10/25 11:21:38;;;;;;;4.60;2.15;;;;;;;19.73;27.53;96912.71;1764180;80;20987;-66
2021/10/25 11:24:13;;;;;;;5.03;2.10;;;;;;;19.88;27.21;96904.16;1773863;81;21015;-66
2021/10/25 11:26:46;;;;;;;3.05;1.65;;;;;;;20.14;26.54;96899.23;1778084;81;21027;-66
2021/10/25 11:29:24;;;;;;;3.27;1.85;;;;;;;20.12;25.04;96895.73;1773012;80;20975;-66
2021/10/25 11:31:58;;;;;;;2.55;2.00;;;;;;;20.35;25.88;96898.05;1769977;80;21496;-67
2021/10/25 11:34:37;;;;;;;3.60;2.25;;;;;;;20.47;24.46;96890.90;1771665;81;21517;-67
2021/10/25 11:37:16;;;;;;;2.98;2.22;;;;;;;20.31;24.85;96889.26;1771657;80;21042;-67
2021/10/25 11:40:00;;;;;;;2.33;1.95;;;;;;;20.65;24.96;96888.02;1766068;80;21033;-68
2021/10/25 11:42:32;;;;;;;3.62;2.20;;;;;;;20.91;25.19;96892.38;1771557;80;21019;-67
2021/10/25 11:45:07;;;;;;;2.92;2.00;;;;;;;21.16;23.88;96882.89;1767750;80;21011;-66
2021/10/25 11:47:38;;;;;;;4.10;1.92;;;;;;;21.20;23.21;96876.48;1767137;80;21039;-66
2021/10/25 11:50:10;;;;;;;4.37;2.40;;;;;;;21.47;24.92;96866.46;1770702;80;20988;-66
2021/10/25 11:52:41;;;;;;;3.35;2.10;;;;;;;21.48;23.22;96872.22;1780793;80;21516;-66
2021/10/25 11:55:11;;;;;;;4.17;2.15;;;;;;;21.16;22.32;96867.66;1775339;81;20989;-66
2021/10/25 11:57:57;;;;;;;5.08;2.12;;;;;;;21.18;23.35;96868.48;1774270;81;21086;-67
2021/10/25 12:00:30;;;;;;;8.80;2.22;;;;;;;21.54;23.27;96865.72;1766085;80;21022;-67
2021/10/25 12:03:15;;;;;;;3.72;2.10;;;;;;;21.71;22.97;96859.16;1763015;80;21584;-67
2021/10/25 12:05:43;;;;;;;3.58;2.12;;;;;;;21.96;22.40;96856.77;1772876;80;21011;-67
2021/10/25 12:08:12;;;;;;;5.30;2.17;;;;;;;22.25;22.66;96855.49;1769551;81;21025;-67
2021/10/25 12:10:41;;;;;;;3.80;2.40;;;;;;;21.95;21.63;96846.50;1764167;80;21045;-67
2021/10/25 12:13:12;;;;;;;3.37;2.22;;;;;;;21.91;21.99;96848.04;1772023;80;21113;-68
2021/10/25 12:15:58;;;;;;;5.78;2.00;;;;;;;22.06;22.65;96843.80;1764376;80;21009;-67
2021/10/25 12:18:25;;;;;;;3.90;1.85;;;;;;;22.44;22.21;96843.45;1775340;81;21015;-67
2021/10/25 12:20:52;;;;;;;2.87;1.90;;;;;;;22.29;21.85;96836.95;1768047;80;21013;-67
2021/10/25 12:23:22;;;;;;;3.55;1.92;;;;;;;22.55;22.78;96836.22;1771840;80;21575;-67
2021/10/25 12:26:01;;;;;;;3.02;1.77;;;;;;;22.98;21.97;96836.91;1765013;80;20977;-67
2021/10/25 12:28:28;;;;;;;2.75;1.90;;;;;;;22.76;20.29;96837.92;1764725;80;21536;-66
2021/10/25 12:31:18;;;;;;;2.22;1.70;;;;;;;23.07;20.51;96831.96;1765435;80;21096;-66
2021/10/25 12:33:45;;;;;;;3.05;1.50;;;;;;;22.89;21.07;96837.73;1770089;80;20997;-66
2021/10/25 12:36:22;;;;;;;4.42;1.85;;;;;;;23.03;20.71;96826.80;1767213;80;20982;-67
2021/10/25 12:38:55;;;;;;;3.27;1.90;;;;;;;23.08;20.04;96817.58;1769553;80;21489;-67
2021/10/25 12:41:22;;;;;;;1.98;1.62;;;;;;;22.99;19.85;96816.66;1771681;80;21015;-68
2021/10/25 12:43:54;;;;;;;4.08;2.00;;;;;;;23.32;20.76;96814.61;1766591;80;20990;-69
2021/10/25 12:46:22;;;;;;;3.30;1.90;;;;;;;23.66;19.14;96806.15;1764104;80;21034;-69
2021/10/25 12:48:53;;;;;;;4.47;2.10;;;;;;;23.80;19.66;96807.70;1764015;80;21009;-69
2021/10/25 12:51:22;;;;;;;4.33;2.20;;;;;;;23.86;18.73;96800.63;1770560;80;21093;-69
2021/10/25 12:53:52;;;;;;;5.22;2.08;;;;;;;24.03;18.64;96798.89;1772428;80;21062;-68
2021/10/25 12:56:27;;;;;;;3.27;2.02;;;;;;;23.79;19.35;96802.38;1773118;80;21052;-68
2021/10/25 12:59:04;;;;;;;4.17;2.10;;;;;;;23.84;19.72;96802.56;1766877;80;21018;-68
2021/10/25 13:01:32;;;;;;;3.40;2.55;;;;;;;23.66;18.84;96800.77;1772816;80;21494;-69
2021/10/25 13:04:01;;;;;;;3.92;2.80;;;;;;;23.62;19.78;96789.77;1771892;80;21055;-69
2021/10/25 13:06:32;;;;;;;5.10;2.10;;;;;;;23.69;19.67;96795.24;1771556;80;21091;-69
2021/10/25 13:09:08;;;;;;;4.78;2.40;;;;;;;23.41;18.77;96789.02;1772057;80;21582;-70
2021/10/25 13:11:36;;;;;;;3.95;2.67;;;;;;;23.42;18.38;96789.44;1778081;80;21022;-69
2021/10/25 13:14:06;;;;;;;7.28;3.30;;;;;;;23.62;19.00;96779.86;1772430;80;21007;-70
2021/10/25 13:17:07;;;;;;;6.17;2.52;;;;;;;23.85;18.51;96784.56;1772194;80;21216;-69
2021/10/25 13:19:07;;;;;;;3.05;2.47;;;;;;;23.71;18.52;96778.05;1746667;80;21057;-68
2021/10/25 13:21:33;;;;;;;4.03;2.52;;;;;;;23.90;18.90;96783.84;1764011;80;21017;-68
2021/10/25 13:24:00;;;;;;;7.28;2.95;;;;;;;23.81;18.98;96774.39;1769251;80;21109;-69
2021/10/25 13:26:30;;;;;;;3.70;2.70;;;;;;;23.73;18.74;96777.49;1764076;80;21140;-68